Time;durP1;ratioP1;P1;durP2;ratioP2;P2;SDS_P1;SDS_P2;PMS_P1;PMS_P2;Temp;Humidity;BMP_temperature;BMP_pressure;BME280_temperature;BME280_humidity;BME280_pressure;Samples;Min_cycle;Max_cycle;Signal;HPM_P1;HPM_P2
2023/07/06 00:01:27;;;;;;;8.30;6.50;;;;;;;19.45;100.00;100809.68;109643;1240;62378;-69
2023/07/06 00:03:56;;;;;;;9.60;6.30;;;;;;;19.45;100.00;100804.23;109662;1240;64190;-70
2023/07/06 00:06:25;;;;;;;7.30;6.00;;;;;;;19.41;100.00;100798.56;109681;1241;61796;-68
2023/07/06 00:08:54;;;;;;;9.90;6.80;;;;;;;19.41;100.00;100797.14;109712;1238;59800;-70
2023/07/06 00:11:23;;;;;;;10.70;7.80;;;;;;;19.51;100.00;100795.15;109750;1241;73566;-69
2023/07/06 00:13:51;;;;;;;8.40;6.60;;;;;;;19.61;100.00;100791.52;109881;1241;57832;-71
2023/07/06 00:16:21;;;;;;;8.30;6.30;;;;;;;19.65;100.00;100794.94;109914;1238;58516;-69
2023/07/06 00:18:50;;;;;;;9.80;5.80;;;;;;;19.58;100.00;100798.83;109769;1238;74122;-70
2023/07/06 00:21:18;;;;;;;9.20;5.80;;;;;;;19.51;100.00;100806.11;109757;1238;72486;-69
2023/07/06 00:23:47;;;;;;;10.10;6.70;;;;;;;19.43;100.00;100807.02;109618;1238;344984;-69
2023/07/06 00:26:20;;;;;;;8.50;5.50;;;;;;;19.28;100.00;100806.48;109895;1238;63451;-70
2023/07/06 00:28:49;;;;;;;9.20;6.00;;;;;;;19.15;100.00;100806.98;109779;1239;57766;-69
2023/07/06 00:31:32;;;;;;;8.80;6.50;;;;;;;19.13;100.00;100803.74;109782;1238;58222;-70
2023/07/06 00:34:05;;;;;;;9.70;7.10;;;;;;;19.35;100.00;100798.89;109681;1238;73809;-69
2023/07/06 00:36:37;;;;;;;9.00;6.10;;;;;;;19.56;100.00;100801.84;109814;1238;72602;-69
2023/07/06 00:39:07;;;;;;;6.50;5.40;;;;;;;19.51;100.00;100796.41;109795;1238;59915;-70
2023/07/06 00:41:35;;;;;;;8.50;5.70;;;;;;;19.38;100.00;100793.95;109793;1238;73781;-70
2023/07/06 00:44:04;;;;;;;8.10;5.30;;;;;;;19.23;100.00;100793.99;109817;1241;57797;-70
2023/07/06 00:46:40;;;;;;;7.40;5.80;;;;;;;19.08;100.00;100791.37;109797;1238;58238;-69
2023/07/06 00:49:17;;;;;;;7.80;5.60;;;;;;;18.97;100.00;100793.30;109655;1238;74950;-68
2023/07/06 00:51:46;;;;;;;7.30;6.00;;;;;;;19.00;100.00;100790.67;109549;1238;72532;-68
2023/07/06 00:54:19;;;;;;;7.50;5.10;;;;;;;19.01;100.00;100788.98;109800;1238;70974;-68
2023/07/06 00:56:52;;;;;;;;;;;;;;;18.93;100.00;100787.17;109719;1238;64058;-70
2023/07/06 00:59:26;;;;;;;8.10;5.60;;;;;;;18.84;100.00;100784.78;109859;1238;62875;-69
2023/07/06 01:01:59;;;;;;;7.70;5.60;;;;;;;18.73;100.00;100789.26;109673;1238;58345;-71
2023/07/06 01:04:30;;;;;;;8.20;5.80;;;;;;;18.67;100.00;100786.39;109797;1238;74472;-71
2023/07/06 01:06:59;;;;;;;8.80;6.00;;;;;;;18.65;100.00;100779.85;109614;1241;72352;-71
2023/07/06 01:09:29;;;;;;;8.50;6.00;;;;;;;18.61;100.00;100778.85;109744;1238;70910;-69
2023/07/06 01:12:03;;;;;;;7.20;5.60;;;;;;;18.60;100.00;100780.43;109867;1241;63389;-70
2023/07/06 01:14:33;;;;;;;8.80;5.10;;;;;;;18.68;100.00;100780.80;109793;1241;58272;-70
2023/07/06 01:17:21;;;;;;;8.90;6.90;;;;;;;18.78;100.00;100783.45;109900;1238;57670;-70
2023/07/06 01:20:38;;;;;;;7.40;5.30;;;;;;;18.90;100.00;100786.31;109910;1238;74369;-69
2023/07/06 01:23:34;;;;;;;6.50;5.40;;;;;;;18.87;100.00;100782.70;109952;1238;60684;-70
2023/07/06 01:26:35;;;;;;;7.40;5.70;;;;;;;18.74;100.00;100785.42;109855;1238;59988;-71
2023/07/06 01:29:18;;;;;;;7.00;5.80;;;;;;;18.70;100.00;100789.05;109822;1238;73834;-70
2023/07/06 01:32:06;;;;;;;11.40;8.90;;;;;;;18.74;100.00;100790.27;110038;1240;58283;-68
2023/07/06 01:35:02;;;;;;;10.40;7.60;;;;;;;18.71;100.00;100791.46;109826;1238;60217;-69
2023/07/06 01:37:37;;;;;;;12.70;7.70;;;;;;;18.69;100.00;100791.26;109735;1238;63383;-68
2023/07/06 01:40:09;;;;;;;12.30;8.90;;;;;;;18.70;100.00;100789.90;109854;1238;71686;-68
2023/07/06 01:42:42;;;;;;;11.80;8.10;;;;;;;18.68;100.00;100783.12;109870;1238;70902;-68
2023/07/06 01:45:21;;;;;;;11.30;7.00;;;;;;;18.62;100.00;100778.59;109810;1238;63851;-68
2023/07/06 01:47:57;;;;;;;12.90;8.30;;;;;;;18.58;100.00;100779.16;109813;1241;61875;-68
2023/07/06 01:50:40;;;;;;;9.90;6.70;;;;;;;18.54;100.00;100782.92;109854;1238;58354;-68
2023/07/06 01:53:21;;;;;;;11.10;7.80;;;;;;;18.47;100.00;100779.59;109820;1238;65223;-69
2023/07/06 01:56:01;;;;;;;12.80;8.00;;;;;;;18.42;100.00;100775.95;109926;1238;61220;-70
2023/07/06 01:59:12;;;;;;;8.90;7.50;;;;;;;18.35;100.00;100772.14;109792;1241;59011;-69
2023/07/06 02:01:48;;;;;;;9.60;7.80;;;;;;;18.32;100.00;100776.10;109800;1238;73599;-70
2023/07/06 02:04:20;;;;;;;9.40;6.40;;;;;;;18.32;100.00;100779.30;109760;1241;63137;-70
2023/07/06 02:06:53;;;;;;;12.10;7.60;;;;;;;18.26;100.00;100777.92;109800;1241;58330;-70
2023/07/06 02:09:22;;;;;;;6.70;5.90;;;;;;;18.23;100.00;100780.00;109824;1241;64319;-70
2023/07/06 02:11:52;;;;;;;8.30;6.10;;;;;;;18.23;100.00;100777.85;109937;1238;60678;-70
2023/07/06 02:14:21;;;;;;;7.90;6.50;;;;;;;18.23;100.00;100775.58;109761;1238;60344;-70
2023/07/06 02:16:51;;;;;;;7.90;6.20;;;;;;;18.23;100.00;100774.18;109702;1238;63063;-70
2023/07/06 02:19:21;;;;;;;9.00;6.10;;;;;;;18.29;100.00;100773.58;109904;1238;62712;-70
2023/07/06 02:21:50;;;;;;;9.20;6.50;;;;;;;18.33;100.00;100777.45;109672;1238;61464;-70
2023/07/06 02:24:20;;;;;;;10.80;7.10;;;;;;;18.54;100.00;100778.58;109664;1238;73269;-71
2023/07/06 02:26:49;;;;;;;8.30;6.50;;;;;;;18.63;100.00;100778.79;109868;1238;71975;-70
2023/07/06 02:29:18;;;;;;;8.00;6.80;;;;;;;18.58;100.00;100780.83;109903;1238;59359;-71
2023/07/06 02:31:47;;;;;;;10.00;7.20;;;;;;;18.48;100.00;100775.44;109973;1239;62324;-71
2023/07/06 02:34:24;;;;;;;9.90;6.90;;;;;;;18.36;100.00;100773.57;109871;1239;63027;-71
2023/07/06 02:36:55;;;;;;;10.50;6.50;;;;;;;18.25;100.00;100768.86;109801;1238;58317;-71
2023/07/06 02:39:24;;;;;;;8.40;6.80;;;;;;;18.13;100.00;100766.80;109565;1244;62894;-72
2023/07/06 02:41:56;;;;;;;11.50;7.30;;;;;;;18.06;100.00;100767.83;109915;1241;61450;-72
2023/07/06 02:44:25;;;;;;;9.30;7.00;;;;;;;17.99;100.00;100769.45;109688;1238;69719;-72
2023/07/06 02:46:54;;;;;;;9.60;6.80;;;;;;;17.95;100.00;100767.38;109673;1238;74930;-72
2023/07/06 02:49:23;;;;;;;8.50;7.00;;;;;;;17.95;100.00;100767.80;109893;1240;57850;-72
2023/07/06 02:51:52;;;;;;;10.50;7.50;;;;;;;17.96;100.00;100760.80;109971;1238;61035;-72
2023/07/06 02:54:20;;;;;;;9.70;6.90;;;;;;;18.04;100.00;100759.86;109814;1238;75149;-72
2023/07/06 02:56:49;;;;;;;8.90;7.50;;;;;;;18.06;100.00;100760.95;109820;1238;61942;-72
2023/07/06 02:59:18;;;;;;;9.10;6.80;;;;;;;18.06;100.00;100765.25;109934;1238;59014;-72
2023/07/06 03:01:47;;;;;;;9.30;7.30;;;;;;;18.04;100.00;100766.49;109703;1238;73551;-72
2023/07/06 03:04:17;;;;;;;9.30;7.90;;;;;;;18.05;100.00;100769.41;109809;1241;62592;-72
2023/07/06 03:06:46;;;;;;;9.90;7.30;;;;;;;18.09;100.00;100773.78;109841;1241;58218;-72
2023/07/06 03:09:15;;;;;;;12.30;7.10;;;;;;;18.10;100.00;100772.08;109872;1239;63642;-72
2023/07/06 03:11:44;;;;;;;11.00;7.60;;;;;;;18.14;100.00;100772.00;109902;1238;61454;-72
2023/07/06 03:14:13;;;;;;;14.10;7.60;;;;;;;18.29;100.00;100767.92;109956;1238;60384;-72
2023/07/06 03:16:42;;;;;;;13.30;8.10;;;;;;;18.44;100.00;100765.70;110026;1239;63136;-72
2023/07/06 03:19:14;;;;;;;12.40;8.10;;;;;;;18.64;100.00;100767.06;109759;1243;62657;-72
2023/07/06 03:21:43;;;;;;;14.50;8.80;;;;;;;18.77;100.00;100763.96;109811;1241;57777;-72
2023/07/06 03:24:12;;;;;;;14.80;8.70;;;;;;;18.93;100.00;100765.84;110069;1238;73420;-71
2023/07/06 03:26:41;;;;;;;10.20;7.70;;;;;;;19.05;100.00;100767.27;109786;1238;71416;-70
2023/07/06 03:29:12;;;;;;;12.20;8.10;;;;;;;19.02;100.00;100766.95;109774;1238;59397;-71
2023/07/06 03:31:41;;;;;;;12.90;7.00;;;;;;;18.98;100.00;100767.59;109889;1238;74265;-72
2023/07/06 03:34:10;;;;;;;9.60;6.80;;;;;;;18.88;100.00;100767.98;109904;1239;63084;-72
2023/07/06 03:36:39;;;;;;;10.60;8.10;;;;;;;18.80;100.00;100765.45;110042;1238;57760;-71
2023/07/06 03:39:12;;;;;;;13.00;7.20;;;;;;;18.71;100.00;100760.31;110026;1238;73466;-72
2023/07/06 03:41:40;;;;;;;13.20;8.10;;;;;;;18.77;100.00;100759.06;110039;1238;71498;-72
2023/07/06 03:44:09;;;;;;;12.90;8.10;;;;;;;18.88;100.00;100758.55;109924;1241;58990;-72
2023/07/06 03:46:38;;;;;;;14.20;8.70;;;;;;;19.00;100.00;100762.44;109865;1241;62345;-71
2023/07/06 03:49:12;;;;;;;12.70;8.50;;;;;;;19.12;100.00;100763.11;109779;1244;58376;-69
2023/07/06 03:51:45;;;;;;;14.60;9.50;;;;;;;19.18;100.00;100767.02;109964;1238;60178;-70
2023/07/06 03:54:14;;;;;;;13.40;10.30;;;;;;;19.31;100.00;100761.84;109922;1239;74719;-70
2023/07/06 03:56:43;;;;;;;14.70;10.80;;;;;;;19.34;100.00;100763.64;109684;1241;62048;-70
2023/07/06 03:59:12;;;;;;;13.20;9.90;;;;;;;19.45;100.00;100762.46;109777;1241;60021;-71
2023/07/06 04:01:41;;;;;;;13.70;10.80;;;;;;;19.46;100.00;100763.23;109750;1241;72626;-70
2023/07/06 04:04:10;;;;;;;13.50;11.20;;;;;;;19.38;100.00;100763.06;109692;1241;63689;-70
2023/07/06 04:06:41;;;;;;;15.20;10.90;;;;;;;19.45;100.00;100765.14;109802;1241;58201;-69
2023/07/06 04:09:10;;;;;;;19.20;10.40;;;;;;;19.49;100.00;100763.09;109778;1240;74392;-69
2023/07/06 04:11:39;;;;;;;15.70;9.70;;;;;;;19.58;100.00;100757.73;109611;1241;61846;-71
2023/07/06 04:14:08;;;;;;;17.40;11.40;;;;;;;19.68;100.00;100756.13;109602;1240;69598;-69
2023/07/06 04:16:38;;;;;;;15.10;10.30;;;;;;;19.79;100.00;100753.25;109604;1240;74255;-69
2023/07/06 04:19:07;;;;;;;15.30;11.10;;;;;;;19.83;100.00;100749.27;109497;1241;58397;-69
2023/07/06 04:21:36;;;;;;;17.80;10.40;;;;;;;19.74;100.00;100748.58;109594;1240;60633;-69
2023/07/06 04:24:07;;;;;;;16.60;12.10;;;;;;;19.77;100.00;100751.24;109588;1240;75246;-71
2023/07/06 04:26:36;;;;;;;15.00;11.30;;;;;;;19.80;100.00;100750.19;109596;1240;71450;-69
2023/07/06 04:29:09;;;;;;;13.80;10.80;;;;;;;19.93;100.00;100750.74;109475;1242;69468;-70
2023/07/06 04:31:39;;;;;;;14.50;9.60;;;;;;;19.96;100.00;100752.27;109557;1241;62911;-70
2023/07/06 04:34:08;;;;;;;15.30;10.80;;;;;;;19.96;100.00;100750.73;109498;1242;58538;-69
2023/07/06 04:36:39;;;;;;;14.30;10.70;;;;;;;19.95;100.00;100744.23;109655;1241;58307;-73
2023/07/06 04:39:09;;;;;;;15.70;10.50;;;;;;;19.92;100.00;100742.19;109706;1241;63800;-71
2023/07/06 04:41:38;;;;;;;15.80;11.10;;;;;;;19.89;100.00;100743.56;109585;1244;72170;-68
2023/07/06 04:44:09;;;;;;;15.80;11.60;;;;;;;19.94;100.00;100744.61;109767;1241;60743;-69
2023/07/06 04:46:39;;;;;;;15.60;10.40;;;;;;;20.06;100.00;100748.14;109798;1238;72994;-71
2023/07/06 04:49:08;;;;;;;14.80;11.50;;;;;;;20.09;100.00;100744.48;109861;1241;58309;-71
2023/07/06 04:51:37;;;;;;;14.20;11.70;;;;;;;20.11;100.00;100745.80;109842;1239;60455;-70
2023/07/06 04:54:08;;;;;;;16.80;11.10;;;;;;;20.18;100.00;100745.60;109781;1238;64350;-69
2023/07/06 04:56:37;;;;;;;16.90;10.80;;;;;;;20.17;100.00;100746.98;109870;1240;61668;-69
2023/07/06 04:59:06;;;;;;;15.70;12.60;;;;;;;20.20;100.00;100753.89;109803;1239;70567;-69
2023/07/06 05:01:35;;;;;;;19.10;12.80;;;;;;;20.29;100.00;100759.91;109726;1239;74251;-69
2023/07/06 05:04:03;;;;;;;14.70;11.70;;;;;;;20.42;100.00;100769.55;109644;1241;62388;-68
2023/07/06 05:06:35;;;;;;;18.00;12.00;;;;;;;20.57;100.00;100769.98;109770;1240;61041;-68
2023/07/06 05:09:04;;;;;;;16.50;12.60;;;;;;;20.71;100.00;100771.92;109666;1240;74228;-68
2023/07/06 05:11:32;;;;;;;19.30;11.30;;;;;;;20.77;100.00;100770.52;109814;1240;71202;-67
2023/07/06 05:14:01;;;;;;;18.80;12.30;;;;;;;20.92;100.00;100767.81;109711;1240;61482;-67
2023/07/06 05:16:30;;;;;;;18.10;12.90;;;;;;;21.00;100.00;100765.30;109796;1238;63627;-68
2023/07/06 05:18:59;;;;;;;14.30;11.20;;;;;;;21.13;100.00;100763.85;109800;1239;58311;-67
2023/07/06 05:21:28;;;;;;;18.50;12.10;;;;;;;21.31;100.00;100763.27;109778;1240;57718;-67
2023/07/06 05:23:56;;;;;;;16.30;12.00;;;;;;;21.48;100.00;100763.06;109782;1240;74390;-67
2023/07/06 05:26:25;;;;;;;17.60;12.00;;;;;;;21.70;100.00;100762.70;109790;1239;62141;-68
2023/07/06 05:28:54;;;;;;;17.60;12.40;;;;;;;21.78;100.00;100759.72;109681;1238;59865;-68
2023/07/06 05:31:23;;;;;;;14.30;10.80;;;;;;;21.79;100.00;100758.59;109883;1238;73142;-71
2023/07/06 05:33:52;;;;;;;17.40;12.40;;;;;;;21.81;100.00;100757.69;109846;1238;62267;-68
2023/07/06 05:36:20;;;;;;;15.50;12.10;;;;;;;21.87;100.00;100761.80;109953;1238;58260;-69
2023/07/06 05:38:49;;;;;;;17.60;11.90;;;;;;;22.00;100.00;100763.95;109960;1238;62774;-68
2023/07/06 05:41:18;;;;;;;14.40;10.70;;;;;;;22.16;100.00;100759.56;109850;1238;61640;-69
2023/07/06 05:43:47;;;;;;;19.30;11.40;;;;;;;22.30;100.00;100759.62;109837;1238;59851;-68
2023/07/06 05:46:16;;;;;;;15.30;11.30;;;;;;;22.31;100.00;100755.66;109828;1238;73971;-69
2023/07/06 05:48:44;;;;;;;17.70;12.20;;;;;;;22.46;100.00;100760.48;109878;1238;62536;-70
2023/07/06 05:51:13;;;;;;;19.20;11.90;;;;;;;22.62;100.00;100760.00;109896;1238;58337;-69
2023/07/06 05:53:42;;;;;;;11.30;9.40;;;;;;;22.75;100.00;100758.48;109775;1238;63025;-69
2023/07/06 05:56:13;;;;;;;16.50;11.10;;;;;;;22.79;100.00;100755.75;109941;1238;61929;-69
2023/07/06 05:58:42;;;;;;;19.80;12.90;;;;;;;22.93;100.00;100753.13;109785;1238;61861;-69
2023/07/06 06:01:11;;;;;;;16.00;11.30;;;;;;;23.07;100.00;100750.02;109870;1239;62762;-70
2023/07/06 06:03:40;;;;;;;15.90;11.80;;;;;;;23.12;100.00;100748.59;109875;1240;57822;-69
2023/07/06 06:06:10;;;;;;;13.20;10.10;;;;;;;23.39;100.00;100746.51;109897;1240;61012;-68
2023/07/06 06:08:39;;;;;;;18.20;12.70;;;;;;;23.50;100.00;100745.14;109878;1238;65128;-68
2023/07/06 06:11:08;;;;;;;16.20;11.50;;;;;;;23.43;100.00;100744.11;109918;1238;60742;-69
2023/07/06 06:13:37;;;;;;;17.90;12.60;;;;;;;23.63;100.00;100742.59;109780;1238;71560;-68
2023/07/06 06:16:11;;;;;;;15.70;12.10;;;;;;;23.78;100.00;100744.02;109866;1238;73484;-68
2023/07/06 06:18:40;;;;;;;21.70;12.40;;;;;;;23.94;100.00;100745.33;109861;1241;63172;-68
2023/07/06 06:21:11;;;;;;;18.10;12.60;;;;;;;24.06;100.00;100736.27;109793;1241;58306;-69
2023/07/06 06:23:42;;;;;;;14.90;11.40;;;;;;;24.32;100.00;100735.82;109945;1238;63556;-68
2023/07/06 06:26:10;;;;;;;14.20;11.40;;;;;;;24.49;100.00;100733.55;109770;1238;71270;-68
2023/07/06 06:28:39;;;;;;;16.10;13.20;;;;;;;24.48;100.00;100737.24;109979;1238;59485;-69
2023/07/06 06:31:08;;;;;;;21.90;12.90;;;;;;;24.53;100.00;100738.89;109956;1238;62503;-73
2023/07/06 06:33:37;;;;;;;13.40;12.00;;;;;;;24.54;100.00;100739.06;109880;1238;58979;-68
2023/07/06 06:36:08;;;;;;;18.50;12.60;;;;;;;24.74;100.00;100738.23;109936;1238;57718;-69
2023/07/06 06:38:36;;;;;;;17.50;12.80;;;;;;;24.81;100.00;100735.05;109990;1238;63780;-69
2023/07/06 06:41:07;;;;;;;16.20;12.20;;;;;;;24.83;100.00;100735.63;109977;1238;60628;-69
2023/07/06 06:43:44;;;;;;;13.70;11.70;;;;;;;24.91;100.00;100730.20;109788;1238;59265;-68
2023/07/06 06:46:14;;;;;;;13.40;11.80;;;;;;;25.00;100.00;100729.06;109850;1238;64974;-69
2023/07/06 06:48:43;;;;;;;14.50;12.10;;;;;;;25.07;100.00;100730.29;109620;1242;58294;-69
2023/07/06 06:51:12;;;;;;;14.20;11.60;;;;;;;25.11;100.00;100731.44;109895;1238;57694;-71
2023/07/06 06:53:40;;;;;;;17.40;12.30;;;;;;;25.16;100.00;100732.67;109803;1238;74746;-69
2023/07/06 06:56:09;;;;;;;15.10;12.80;;;;;;;25.20;100.00;100725.59;109798;1238;61683;-69
2023/07/06 06:58:38;;;;;;;15.50;12.40;;;;;;;25.31;100.00;100725.83;109885;1238;59565;-69
2023/07/06 07:01:09;;;;;;;15.70;12.20;;;;;;;25.45;100.00;100723.10;109747;1238;62292;-69
2023/07/06 07:03:38;;;;;;;15.60;12.40;;;;;;;25.45;100.00;100719.90;109795;1238;58593;-68
2023/07/06 07:06:13;;;;;;;15.90;11.90;;;;;;;25.58;100.00;100718.11;109695;1238;58741;-68
2023/07/06 07:08:50;;;;;;;17.00;12.20;;;;;;;25.62;100.00;100713.86;109621;1238;63758;-70
2023/07/06 07:11:20;;;;;;;13.90;11.00;;;;;;;25.74;100.00;100715.04;109616;1238;62309;-71
2023/07/06 07:13:52;;;;;;;14.30;11.60;;;;;;;25.93;100.00;100708.28;109724;1238;71032;-70
2023/07/06 07:16:23;;;;;;;15.10;11.40;;;;;;;25.98;100.00;100703.57;109524;1240;65451;-67
2023/07/06 07:18:54;;;;;;;13.90;11.30;;;;;;;26.09;100.00;100702.11;109640;1240;57873;-66
2023/07/06 07:21:23;;;;;;;16.30;12.20;;;;;;;26.15;100.00;100707.35;109692;1240;58275;-67
2023/07/06 07:23:52;;;;;;;17.40;11.20;;;;;;;26.31;100.00;100706.96;109659;1238;64106;-68
2023/07/06 07:26:23;;;;;;;14.20;10.50;;;;;;;26.40;100.00;100707.41;109671;1238;72192;-66
2023/07/06 07:28:53;;;;;;;12.90;10.80;;;;;;;26.48;100.00;100708.29;109410;1238;61656;-65
2023/07/06 07:31:23;;;;;;;13.10;11.60;;;;;;;26.50;100.00;100711.49;109707;1238;63731;-66
2023/07/06 07:33:51;;;;;;;14.10;10.80;;;;;;;26.62;100.00;100706.67;109683;1238;63233;-67
2023/07/06 07:36:22;;;;;;;12.50;10.00;;;;;;;26.74;99.72;100705.39;109784;1238;57841;-67
2023/07/06 07:38:53;;;;;;;12.80;10.40;;;;;;;26.84;99.69;100699.02;109600;1240;63834;-69
2023/07/06 07:41:22;;;;;;;14.40;10.70;;;;;;;27.04;98.91;100698.77;109621;1238;70462;-68
2023/07/06 07:43:51;;;;;;;12.60;10.40;;;;;;;27.13;97.91;100698.42;109800;1238;59260;-68
2023/07/06 07:46:20;;;;;;;12.70;10.60;;;;;;;27.26;96.30;100698.39;109804;1241;63214;-68
2023/07/06 07:48:50;;;;;;;14.60;10.30;;;;;;;27.21;97.01;100700.84;109877;1239;63412;-68
2023/07/06 07:51:23;;;;;;;15.90;10.20;;;;;;;27.34;96.23;100699.94;109805;1239;58356;-68
2023/07/06 07:53:54;;;;;;;15.00;10.60;;;;;;;27.40;96.87;100696.11;109672;1241;63878;-68
2023/07/06 07:56:26;;;;;;;14.20;10.80;;;;;;;27.54;96.88;100694.16;109614;1240;62064;-68
2023/07/06 07:58:55;;;;;;;12.90;10.90;;;;;;;27.64;95.88;100691.65;109757;1238;60073;-66
2023/07/06 08:01:25;;;;;;;14.40;11.10;;;;;;;27.66;95.52;100695.50;109777;1240;64951;-67
2023/07/06 08:03:54;;;;;;;14.10;10.40;;;;;;;27.67;96.19;100695.54;109645;1241;58305;-67
2023/07/06 08:06:23;;;;;;;14.70;10.60;;;;;;;27.78;95.89;100698.88;109699;1239;60911;-67
2023/07/06 08:08:52;;;;;;;16.40;10.90;;;;;;;27.84;95.20;100691.04;109581;1238;64736;-67
2023/07/06 08:11:24;;;;;;;12.00;10.00;;;;;;;27.82;95.00;100690.40;109676;1240;71592;-69
2023/07/06 08:13:55;;;;;;;13.50;10.00;;;;;;;27.89;94.31;100684.38;109520;1238;71279;-68
2023/07/06 08:16:24;;;;;;;14.00;10.40;;;;;;;28.06;93.95;100683.41;109612;1238;74317;-68
2023/07/06 08:18:55;;;;;;;11.80;10.30;;;;;;;28.17;93.14;100685.33;109618;1238;60972;-67
2023/07/06 08:21:44;;;;;;;12.90;10.00;;;;;;;28.29;92.04;100680.02;109788;1239;58284;-67
2023/07/06 08:24:33;;;;;;;11.50;9.10;;;;;;;28.41;90.69;100684.80;109582;1240;66293;-69
2023/07/06 08:27:01;;;;;;;10.20;9.00;;;;;;;28.47;89.36;100680.18;109755;1238;72698;-69
2023/07/06 08:29:31;;;;;;;11.00;8.80;;;;;;;28.47;88.12;100678.95;109842;1240;59498;-67
2023/07/06 08:32:00;;;;;;;10.90;9.20;;;;;;;28.50;86.62;100677.95;109862;1238;63955;-69
2023/07/06 08:34:29;;;;;;;9.60;8.60;;;;;;;28.56;86.24;100676.02;109640;1242;58298;-67
2023/07/06 08:36:58;;;;;;;10.10;8.90;;;;;;;28.65;86.18;100673.97;109649;1239;59605;-71
2023/07/06 08:39:26;;;;;;;10.60;9.20;;;;;;;28.75;86.37;100673.27;109865;1238;74918;-73
2023/07/06 08:41:57;;;;;;;10.90;9.30;;;;;;;28.86;85.43;100672.55;109558;1238;72617;-72
2023/07/06 08:44:27;;;;;;;13.50;9.70;;;;;;;28.95;84.26;100670.96;109681;1238;59723;-77
2023/07/06 08:46:56;;;;;;;9.20;8.10;;;;;;;29.08;84.92;100667.45;109892;1241;72921;-71
2023/07/06 08:49:33;;;;;;;10.20;9.10;;;;;;;29.19;83.73;100667.75;109770;1238;61804;-73
2023/07/06 08:52:05;;;;;;;9.20;8.30;;;;;;;29.21;83.32;100667.91;109822;1239;57805;-75
2023/07/06 08:54:41;;;;;;;14.40;8.80;;;;;;;29.36;82.77;100669.21;109674;1240;74302;-76
2023/07/06 08:57:19;;;;;;;9.60;8.50;;;;;;;29.33;82.05;100662.36;109714;1239;62930;-76
2023/07/06 08:59:51;;;;;;;12.70;8.70;;;;;;;29.53;82.02;100670.02;109796;1239;71802;-74
2023/07/06 09:02:30;;;;;;;9.80;8.60;;;;;;;29.61;80.92;100667.02;109507;1238;73728;-78
2023/07/06 09:05:11;;;;;;;10.00;8.70;;;;;;;29.63;80.61;100667.11;109747;1241;58268;-72
2023/07/06 09:07:44;;;;;;;10.40;8.50;;;;;;;29.66;80.08;100668.90;109719;1241;58079;-72
2023/07/06 09:10:25;;;;;;;9.20;8.00;;;;;;;29.76;80.51;100659.35;109656;1238;75467;-72
2023/07/06 09:13:12;;;;;;;9.40;7.90;;;;;;;29.79;79.65;100666.85;109653;1240;61618;-72
2023/07/06 09:15:44;;;;;;;14.80;8.40;;;;;;;29.94;78.28;100665.27;109744;1238;70554;-70
2023/07/06 09:18:14;;;;;;;;;;;;;;;29.99;77.20;100670.27;109713;1240;74882;-70
2023/07/06 09:20:44;;;;;;;15.30;7.90;;;;;;;30.01;77.36;100663.77;109666;1241;62100;-71
2023/07/06 09:23:15;;;;;;;9.10;8.20;;;;;;;30.11;77.45;100666.63;109617;1240;60881;-72
2023/07/06 09:25:47;;;;;;;8.60;7.70;;;;;;;30.17;77.12;100664.10;109743;1241;63491;-72
2023/07/06 09:28:29;;;;;;;8.00;7.20;;;;;;;30.24;76.14;100665.38;109582;1241;61630;-72
2023/07/06 09:31:21;;;;;;;9.80;7.60;;;;;;;30.31;74.22;100662.65;109854;1240;60551;-71
2023/07/06 09:33:54;;;;;;;9.20;7.90;;;;;;;30.34;69.51;100663.45;109791;1241;63112;-72
2023/07/06 09:36:27;;;;;;;10.00;7.20;;;;;;;30.52;68.52;100663.75;109807;1239;57727;-74
2023/07/06 09:39:08;;;;;;;11.20;7.30;;;;;;;30.61;67.11;100666.27;109704;1241;58220;-70
2023/07/06 09:41:44;;;;;;;11.60;7.60;;;;;;;30.60;66.04;100660.77;109832;1238;72704;-70
2023/07/06 09:44:21;;;;;;;11.70;8.00;;;;;;;30.80;66.15;100655.45;109654;1241;61265;-71
2023/07/06 09:46:50;;;;;;;9.70;8.30;;;;;;;30.93;66.01;100651.67;109727;1241;59054;-70
2023/07/06 09:49:21;;;;;;;9.40;7.80;;;;;;;30.77;66.11;100649.55;109781;1241;63060;-72
2023/07/06 09:52:05;;;;;;;10.20;8.10;;;;;;;30.97;65.66;100652.21;109638;1244;61269;-70
2023/07/06 09:55:19;;;;;;;10.50;8.00;;;;;;;31.20;65.00;100651.95;109745;1238;60149;-74
2023/07/06 09:57:49;;;;;;;9.80;7.50;;;;;;;31.28;63.20;100650.43;109431;1246;74967;-69
2023/07/06 10:00:24;;;;;;;8.80;7.30;;;;;;;31.31;62.94;100648.67;109802;1241;61277;-69
2023/07/06 10:03:31;;;;;;;9.40;7.10;;;;;;;31.22;62.91;100652.15;109647;1241;59107;-69
2023/07/06 10:06:32;;;;;;;9.40;7.80;;;;;;;31.14;63.07;100646.59;109823;1238;63847;-69
2023/07/06 10:09:27;;;;;;;8.30;7.10;;;;;;;31.41;63.13;100642.09;109758;1241;57788;-70
2023/07/06 10:12:08;;;;;;;7.90;6.80;;;;;;;31.68;62.08;100640.61;109775;1242;58361;-70
2023/07/06 10:14:51;;;;;;;12.40;7.20;;;;;;;31.74;61.69;100633.54;109897;1240;63598;-69
2023/07/06 10:17:37;;;;;;;9.50;7.70;;;;;;;31.58;62.78;100630.39;109873;1238;71262;-69
2023/07/06 10:20:29;;;;;;;10.30;7.50;;;;;;;31.66;62.94;100630.28;109867;1241;59726;-69
2023/07/06 10:23:13;;;;;;;8.10;7.30;;;;;;;32.08;62.69;100625.09;109767;1238;65162;-69
2023/07/06 10:26:14;;;;;;;10.40;7.80;;;;;;;32.16;62.19;100619.48;109839;1241;58339;-69
2023/07/06 10:29:05;;;;;;;8.60;7.80;;;;;;;32.34;61.35;100614.09;109872;1238;58272;-69
2023/07/06 10:31:46;;;;;;;9.10;6.40;;;;;;;32.49;59.12;100614.39;109968;1238;74438;-70
2023/07/06 10:34:27;;;;;;;9.00;7.50;;;;;;;32.70;58.33;100612.11;109857;1238;61871;-73
2023/07/06 10:36:56;;;;;;;9.00;7.30;;;;;;;32.91;59.18;100610.92;109784;1238;70544;-72
2023/07/06 10:39:24;;;;;;;8.20;6.90;;;;;;;32.93;59.36;100605.86;109771;1238;64821;-74
2023/07/06 10:42:19;;;;;;;8.00;7.10;;;;;;;32.91;58.59;100604.27;109807;1240;57841;-71
2023/07/06 10:44:55;;;;;;;9.20;7.00;;;;;;;33.25;58.25;100602.67;109767;1241;60282;-71
2023/07/06 10:47:33;;;;;;;8.70;6.60;;;;;;;33.49;56.28;100604.74;109725;1240;74395;-70
2023/07/06 10:50:12;;;;;;;8.10;6.90;;;;;;;33.49;55.62;100599.29;109860;1240;61280;-71
2023/07/06 10:52:43;;;;;;;11.90;7.20;;;;;;;33.71;55.25;100592.42;109840;1240;61107;-69
2023/07/06 10:55:24;;;;;;;9.90;7.40;;;;;;;34.03;54.28;100594.98;109722;1241;63661;-70
2023/07/06 10:57:58;;;;;;;7.50;6.70;;;;;;;34.01;52.42;100586.14;109680;1241;60585;-71
2023/07/06 11:00:37;;;;;;;10.00;8.30;;;;;;;34.35;51.91;100584.42;109741;1241;58230;-71
2023/07/06 11:03:06;;;;;;;7.20;6.50;;;;;;;34.44;51.94;100578.95;109732;1238;63752;-74
2023/07/06 11:05:51;;;;;;;9.80;7.20;;;;;;;34.94;51.93;100576.46;109592;1244;60870;-72
2023/07/06 11:09:05;;;;;;;7.60;6.20;;;;;;;35.10;50.98;100571.63;109743;1238;59971;-73
2023/07/06 11:11:38;;;;;;;7.20;6.40;;;;;;;34.93;49.89;100566.95;109803;1241;65019;-72
2023/07/06 11:14:24;;;;;;;7.30;6.50;;;;;;;34.74;49.13;100562.17;109543;1238;58408;-71
2023/07/06 11:17:00;;;;;;;7.20;6.40;;;;;;;35.00;48.66;100558.84;109782;1238;60184;-71
2023/07/06 11:19:38;;;;;;;8.40;6.10;;;;;;;34.77;48.23;100557.48;109749;1240;66156;-71
2023/07/06 11:22:17;;;;;;;7.00;5.70;;;;;;;35.08;47.37;100547.31;109904;1240;70391;-71
2023/07/06 11:24:49;;;;;;;10.00;6.00;;;;;;;35.10;45.74;100536.34;109778;1239;59691;-72
2023/07/06 11:27:30;;;;;;;7.70;5.80;;;;;;;35.03;46.96;100530.94;109806;1239;63254;-71
2023/07/06 11:30:31;;;;;;;8.30;5.80;;;;;;;35.79;45.16;100524.42;109854;1241;60663;-71
2023/07/06 11:33:13;;;;;;;8.40;5.70;;;;;;;35.12;45.82;100517.40;109768;1238;60335;-72